sensor_id;sensor_type;location;lat;lon;timestamp;P1;durP1;ratioP1;P2;durP2;ratioP2
8572;SDS011;4324;42.012;24.872;2023-03-31T00:02:11;9.00;;;6.10;;
8572;SDS011;4324;42.012;24.872;2023-03-31T00:04:38;8.90;;;5.77;;
8572;SDS011;4324;42.012;24.872;2023-03-31T00:07:11;10.47;;;6.47;;
8572;SDS011;4324;42.012;24.872;2023-03-31T00:09:39;7.23;;;5.90;;
8572;SDS011;4324;42.012;24.872;2023-03-31T00:12:11;8.50;;;5.90;;
8572;SDS011;4324;42.012;24.872;2023-03-31T00:14:39;6.43;;;5.63;;
8572;SDS011;4324;42.012;24.872;2023-03-31T00:17:06;8.23;;;5.80;;
8572;SDS011;4324;42.012;24.872;2023-03-31T00:19:33;10.47;;;7.07;;
8572;SDS011;4324;42.012;24.872;2023-03-31T00:22:00;9.03;;;6.87;;
8572;SDS011;4324;42.012;24.872;2023-03-31T00:24:29;8.67;;;7.23;;
8572;SDS011;4324;42.012;24.872;2023-03-31T00:26:57;11.03;;;7.80;;
8572;SDS011;4324;42.012;24.872;2023-03-31T00:29:25;18.47;;;13.30;;
8572;SDS011;4324;42.012;24.872;2023-03-31T00:31:52;15.93;;;12.87;;
8572;SDS011;4324;42.012;24.872;2023-03-31T00:34:19;12.33;;;10.17;;
8572;SDS011;4324;42.012;24.872;2023-03-31T00:36:46;12.93;;;9.00;;
8572;SDS011;4324;42.012;24.872;2023-03-31T00:39:13;13.07;;;8.57;;
8572;SDS011;4324;42.012;24.872;2023-03-31T00:41:42;9.90;;;6.50;;
8572;SDS011;4324;42.012;24.872;2023-03-31T00:44:10;7.57;;;6.13;;
8572;SDS011;4324;42.012;24.872;2023-03-31T00:46:42;7.00;;;6.30;;
8572;SDS011;4324;42.012;24.872;2023-03-31T00:49:13;6.70;;;5.90;;
8572;SDS011;4324;42.012;24.872;2023-03-31T00:51:47;7.23;;;5.60;;
8572;SDS011;4324;42.012;24.872;2023-03-31T00:54:17;8.67;;;5.83;;
8572;SDS011;4324;42.012;24.872;2023-03-31T00:56:46;7.57;;;5.30;;
8572;SDS011;4324;42.012;24.872;2023-03-31T00:59:19;5.90;;;5.30;;
8572;SDS011;4324;42.012;24.872;2023-03-31T01:01:54;8.07;;;5.33;;
8572;SDS011;4324;42.012;24.872;2023-03-31T01:04:26;7.83;;;4.80;;
8572;SDS011;4324;42.012;24.872;2023-03-31T01:06:57;7.80;;;5.83;;
8572;SDS011;4324;42.012;24.872;2023-03-31T01:09:29;7.73;;;5.50;;
8572;SDS011;4324;42.012;24.872;2023-03-31T01:11:59;6.20;;;5.60;;
8572;SDS011;4324;42.012;24.872;2023-03-31T01:14:29;6.50;;;5.27;;
8572;SDS011;4324;42.012;24.872;2023-03-31T01:16:58;7.37;;;4.97;;
8572;SDS011;4324;42.012;24.872;2023-03-31T01:19:29;7.47;;;5.70;;
8572;SDS011;4324;42.012;24.872;2023-03-31T01:22:20;6.70;;;5.10;;
8572;SDS011;4324;42.012;24.872;2023-03-31T01:28:32;8.03;;;5.87;;
8572;SDS011;4324;42.012;24.872;2023-03-31T01:31:20;6.40;;;5.50;;
8572;SDS011;4324;42.012;24.872;2023-03-31T01:40:30;7.47;;;5.07;;
8572;SDS011;4324;42.012;24.872;2023-03-31T01:43:09;6.97;;;6.10;;
8572;SDS011;4324;42.012;24.872;2023-03-31T01:45:43;7.07;;;5.63;;
8572;SDS011;4324;42.012;24.872;2023-03-31T01:48:21;9.70;;;6.47;;
8572;SDS011;4324;42.012;24.872;2023-03-31T01:51:00;9.33;;;5.73;;
8572;SDS011;4324;42.012;24.872;2023-03-31T01:53:32;10.37;;;8.17;;
8572;SDS011;4324;42.012;24.872;2023-03-31T01:56:09;9.67;;;6.97;;
8572;SDS011;4324;42.012;24.872;2023-03-31T01:58:41;10.87;;;6.60;;
8572;SDS011;4324;42.012;24.872;2023-03-31T02:01:13;8.93;;;6.27;;
8572;SDS011;4324;42.012;24.872;2023-03-31T02:03:47;7.07;;;6.13;;
8572;SDS011;4324;42.012;24.872;2023-03-31T02:06:22;7.20;;;6.00;;
8572;SDS011;4324;42.012;24.872;2023-03-31T02:08:53;11.30;;;6.03;;
8572;SDS011;4324;42.012;24.872;2023-03-31T02:11:25;9.73;;;6.40;;
8572;SDS011;4324;42.012;24.872;2023-03-31T02:13:56;10.10;;;6.27;;
8572;SDS011;4324;42.012;24.872;2023-03-31T02:16:26;9.60;;;6.80;;
8572;SDS011;4324;42.012;24.872;2023-03-31T02:18:58;11.87;;;7.00;;
8572;SDS011;4324;42.012;24.872;2023-03-31T02:21:30;9.00;;;6.60;;
8572;SDS011;4324;42.012;24.872;2023-03-31T02:23:59;10.70;;;6.73;;
8572;SDS011;4324;42.012;24.872;2023-03-31T02:26:33;7.90;;;6.00;;
8572;SDS011;4324;42.012;24.872;2023-03-31T02:29:05;7.57;;;6.13;;
8572;SDS011;4324;42.012;24.872;2023-03-31T02:31:34;8.33;;;5.40;;
8572;SDS011;4324;42.012;24.872;2023-03-31T02:34:08;9.10;;;6.03;;
8572;SDS011;4324;42.012;24.872;2023-03-31T02:36:36;6.83;;;5.97;;
8572;SDS011;4324;42.012;24.872;2023-03-31T02:39:04;6.97;;;5.27;;
8572;SDS011;4324;42.012;24.872;2023-03-31T02:41:36;8.60;;;5.70;;
8572;SDS011;4324;42.012;24.872;2023-03-31T02:44:03;10.37;;;7.43;;
8572;SDS011;4324;42.012;24.872;2023-03-31T02:46:30;6.93;;;5.77;;
8572;SDS011;4324;42.012;24.872;2023-03-31T02:48:58;8.77;;;6.60;;
8572;SDS011;4324;42.012;24.872;2023-03-31T02:57:49;6.60;;;5.20;;
8572;SDS011;4324;42.012;24.872;2023-03-31T03:00:40;9.10;;;5.87;;
8572;SDS011;4324;42.012;24.872;2023-03-31T03:03:21;8.80;;;6.10;;
8572;SDS011;4324;42.012;24.872;2023-03-31T03:05:58;7.97;;;5.73;;
8572;SDS011;4324;42.012;24.872;2023-03-31T03:08:33;8.03;;;6.00;;
8572;SDS011;4324;42.012;24.872;2023-03-31T03:11:12;8.73;;;5.67;;
8572;SDS011;4324;42.012;24.872;2023-03-31T03:13:48;5.87;;;5.27;;
8572;SDS011;4324;42.012;24.872;2023-03-31T03:16:20;8.40;;;5.80;;
8572;SDS011;4324;42.012;24.872;2023-03-31T03:18:54;8.03;;;5.60;;
8572;SDS011;4324;42.012;24.872;2023-03-31T03:21:22;7.27;;;5.67;;
8572;SDS011;4324;42.012;24.872;2023-03-31T03:23:50;7.63;;;5.77;;
8572;SDS011;4324;42.012;24.872;2023-03-31T03:26:17;9.73;;;6.23;;
8572;SDS011;4324;42.012;24.872;2023-03-31T03:28:49;9.47;;;8.13;;
8572;SDS011;4324;42.012;24.872;2023-03-31T03:31:16;13.60;;;9.47;;
8572;SDS011;4324;42.012;24.872;2023-03-31T03:33:43;7.70;;;5.77;;
8572;SDS011;4324;42.012;24.872;2023-03-31T03:36:10;11.70;;;6.33;;
8572;SDS011;4324;42.012;24.872;2023-03-31T03:38:38;8.57;;;6.00;;
8572;SDS011;4324;42.012;24.872;2023-03-31T03:41:05;7.13;;;6.43;;
8572;SDS011;4324;42.012;24.872;2023-03-31T03:43:32;6.77;;;5.87;;
8572;SDS011;4324;42.012;24.872;2023-03-31T03:46:00;9.50;;;6.90;;
8572;SDS011;4324;42.012;24.872;2023-03-31T03:48:27;13.23;;;7.30;;
8572;SDS011;4324;42.012;24.872;2023-03-31T03:50:54;14.17;;;9.20;;
8572;SDS011;4324;42.012;24.872;2023-03-31T03:53:21;13.93;;;7.40;;
8572;SDS011;4324;42.012;24.872;2023-03-31T03:55:48;12.97;;;6.90;;
8572;SDS011;4324;42.012;24.872;2023-03-31T03:58:15;18.60;;;9.47;;
8572;SDS011;4324;42.012;24.872;2023-03-31T04:00:44;16.93;;;9.23;;
8572;SDS011;4324;42.012;24.872;2023-03-31T04:03:12;15.43;;;10.47;;
8572;SDS011;4324;42.012;24.872;2023-03-31T04:05:40;16.27;;;8.47;;
8572;SDS011;4324;42.012;24.872;2023-03-31T04:08:07;14.43;;;8.60;;
8572;SDS011;4324;42.012;24.872;2023-03-31T04:10:34;10.93;;;6.43;;
8572;SDS011;4324;42.012;24.872;2023-03-31T04:13:01;12.23;;;8.33;;
8572;SDS011;4324;42.012;24.872;2023-03-31T04:15:28;10.07;;;7.67;;
8572;SDS011;4324;42.012;24.872;2023-03-31T04:17:55;9.37;;;7.53;;
8572;SDS011;4324;42.012;24.872;2023-03-31T04:20:23;10.27;;;7.20;;
8572;SDS011;4324;42.012;24.872;2023-03-31T04:22:52;10.13;;;6.83;;
8572;SDS011;4324;42.012;24.872;2023-03-31T04:25:19;14.03;;;7.60;;
8572;SDS011;4324;42.012;24.872;2023-03-31T04:27:47;18.23;;;8.63;;
8572;SDS011;4324;42.012;24.872;2023-03-31T04:30:19;11.70;;;7.70;;
8572;SDS011;4324;42.012;24.872;2023-03-31T04:32:55;11.17;;;8.03;;
8572;SDS011;4324;42.012;24.872;2023-03-31T04:35:26;12.87;;;8.93;;
8572;SDS011;4324;42.012;24.872;2023-03-31T04:38:06;15.23;;;10.37;;
8572;SDS011;4324;42.012;24.872;2023-03-31T04:40:34;12.03;;;9.13;;
8572;SDS011;4324;42.012;24.872;2023-03-31T04:43:00;12.53;;;8.80;;
8572;SDS011;4324;42.012;24.872;2023-03-31T04:45:27;10.47;;;7.70;;
8572;SDS011;4324;42.012;24.872;2023-03-31T04:47:54;9.50;;;7.80;;
8572;SDS011;4324;42.012;24.872;2023-03-31T04:50:21;13.83;;;8.40;;
8572;SDS011;4324;42.012;24.872;2023-03-31T04:52:50;12.43;;;9.13;;
8572;SDS011;4324;42.012;24.872;2023-03-31T04:55:17;11.63;;;8.37;;
8572;SDS011;4324;42.012;24.872;2023-03-31T04:57:44;12.37;;;8.43;;
8572;SDS011;4324;42.012;24.872;2023-03-31T05:00:11;19.73;;;13.97;;
8572;SDS011;4324;42.012;24.872;2023-03-31T05:02:39;28.83;;;21.23;;
8572;SDS011;4324;42.012;24.872;2023-03-31T05:05:07;18.40;;;12.03;;
8572;SDS011;4324;42.012;24.872;2023-03-31T05:07:34;11.60;;;8.90;;
8572;SDS011;4324;42.012;24.872;2023-03-31T05:10:03;14.57;;;8.93;;
8572;SDS011;4324;42.012;24.872;2023-03-31T05:12:32;11.73;;;6.33;;
8572;SDS011;4324;42.012;24.872;2023-03-31T05:15:00;6.07;;;5.00;;
8572;SDS011;4324;42.012;24.872;2023-03-31T05:17:29;6.37;;;4.03;;
8572;SDS011;4324;42.012;24.872;2023-03-31T05:19:57;6.67;;;4.90;;
8572;SDS011;4324;42.012;24.872;2023-03-31T05:22:24;7.20;;;5.07;;
8572;SDS011;4324;42.012;24.872;2023-03-31T05:24:51;5.13;;;3.50;;
8572;SDS011;4324;42.012;24.872;2023-03-31T05:27:20;5.93;;;4.57;;
8572;SDS011;4324;42.012;24.872;2023-03-31T05:29:47;5.77;;;3.93;;
8572;SDS011;4324;42.012;24.872;2023-03-31T05:32:13;5.60;;;3.73;;
8572;SDS011;4324;42.012;24.872;2023-03-31T05:34:40;9.07;;;4.70;;
8572;SDS011;4324;42.012;24.872;2023-03-31T05:37:08;4.80;;;3.70;;
8572;SDS011;4324;42.012;24.872;2023-03-31T05:39:35;5.23;;;4.73;;
8572;SDS011;4324;42.012;24.872;2023-03-31T05:42:02;7.13;;;5.67;;
8572;SDS011;4324;42.012;24.872;2023-03-31T05:44:31;10.23;;;5.17;;
8572;SDS011;4324;42.012;24.872;2023-03-31T05:46:58;5.10;;;4.03;;
8572;SDS011;4324;42.012;24.872;2023-03-31T05:49:25;8.77;;;5.80;;
8572;SDS011;4324;42.012;24.872;2023-03-31T05:51:52;5.27;;;4.73;;
8572;SDS011;4324;42.012;24.872;2023-03-31T05:54:18;16.60;;;8.87;;
8572;SDS011;4324;42.012;24.872;2023-03-31T05:56:45;12.13;;;7.97;;
8572;SDS011;4324;42.012;24.872;2023-03-31T05:59:13;10.87;;;9.20;;
8572;SDS011;4324;42.012;24.872;2023-03-31T06:01:42;12.93;;;10.07;;
8572;SDS011;4324;42.012;24.872;2023-03-31T06:04:08;24.53;;;16.43;;
8572;SDS011;4324;42.012;24.872;2023-03-31T06:06:35;25.90;;;17.20;;
8572;SDS011;4324;42.012;24.872;2023-03-31T06:09:02;20.97;;;13.77;;
8572;SDS011;4324;42.012;24.872;2023-03-31T06:11:30;18.77;;;11.23;;
8572;SDS011;4324;42.012;24.872;2023-03-31T06:13:57;20.37;;;12.97;;
8572;SDS011;4324;42.012;24.872;2023-03-31T06:16:24;20.67;;;11.93;;
8572;SDS011;4324;42.012;24.872;2023-03-31T06:18:54;17.03;;;8.93;;
8572;SDS011;4324;42.012;24.872;2023-03-31T06:21:21;16.27;;;9.43;;
8572;SDS011;4324;42.012;24.872;2023-03-31T06:23:48;14.97;;;10.43;;
8572;SDS011;4324;42.012;24.872;2023-03-31T06:26:19;22.03;;;14.47;;
8572;SDS011;4324;42.012;24.872;2023-03-31T06:28:47;25.30;;;21.47;;
8572;SDS011;4324;42.012;24.872;2023-03-31T06:31:15;21.20;;;18.00;;
8572;SDS011;4324;42.012;24.872;2023-03-31T06:33:43;22.70;;;18.70;;
8572;SDS011;4324;42.012;24.872;2023-03-31T06:36:12;22.37;;;18.83;;
8572;SDS011;4324;42.012;24.872;2023-03-31T06:38:41;22.03;;;16.87;;
8572;SDS011;4324;42.012;24.872;2023-03-31T06:41:10;19.33;;;13.87;;
8572;SDS011;4324;42.012;24.872;2023-03-31T06:43:38;21.23;;;13.57;;
8572;SDS011;4324;42.012;24.872;2023-03-31T06:46:05;19.50;;;15.20;;
8572;SDS011;4324;42.012;24.872;2023-03-31T06:48:33;19.20;;;13.73;;
8572;SDS011;4324;42.012;24.872;2023-03-31T06:51:00;22.10;;;11.33;;
8572;SDS011;4324;42.012;24.872;2023-03-31T06:53:30;11.80;;;7.90;;
8572;SDS011;4324;42.012;24.872;2023-03-31T06:55:58;8.50;;;5.60;;
8572;SDS011;4324;42.012;24.872;2023-03-31T06:58:25;4.87;;;3.73;;
8572;SDS011;4324;42.012;24.872;2023-03-31T07:00:52;4.87;;;4.10;;
8572;SDS011;4324;42.012;24.872;2023-03-31T07:03:19;5.30;;;3.50;;
8572;SDS011;4324;42.012;24.872;2023-03-31T07:05:49;8.67;;;3.17;;
8572;SDS011;4324;42.012;24.872;2023-03-31T07:08:16;5.60;;;3.30;;
8572;SDS011;4324;42.012;24.872;2023-03-31T07:10:45;4.00;;;3.53;;
8572;SDS011;4324;42.012;24.872;2023-03-31T07:13:13;4.17;;;3.27;;
8572;SDS011;4324;42.012;24.872;2023-03-31T07:15:42;5.97;;;3.70;;
8572;SDS011;4324;42.012;24.872;2023-03-31T07:18:12;20.87;;;13.03;;
8572;SDS011;4324;42.012;24.872;2023-03-31T07:20:40;19.93;;;14.30;;
8572;SDS011;4324;42.012;24.872;2023-03-31T07:23:07;18.23;;;13.43;;
8572;SDS011;4324;42.012;24.872;2023-03-31T07:25:34;13.40;;;9.83;;
8572;SDS011;4324;42.012;24.872;2023-03-31T07:28:03;14.67;;;10.40;;
8572;SDS011;4324;42.012;24.872;2023-03-31T07:30:30;14.27;;;10.43;;
8572;SDS011;4324;42.012;24.872;2023-03-31T07:32:58;16.07;;;9.10;;
8572;SDS011;4324;42.012;24.872;2023-03-31T07:35:25;11.83;;;9.00;;
8572;SDS011;4324;42.012;24.872;2023-03-31T07:37:52;17.80;;;10.07;;
8572;SDS011;4324;42.012;24.872;2023-03-31T07:40:20;11.63;;;9.03;;
8572;SDS011;4324;42.012;24.872;2023-03-31T07:42:49;16.50;;;10.20;;
8572;SDS011;4324;42.012;24.872;2023-03-31T07:45:18;17.17;;;11.03;;
8572;SDS011;4324;42.012;24.872;2023-03-31T07:47:46;13.43;;;9.83;;
8572;SDS011;4324;42.012;24.872;2023-03-31T07:50:14;12.13;;;9.70;;
8572;SDS011;4324;42.012;24.872;2023-03-31T07:52:42;14.83;;;9.10;;
8572;SDS011;4324;42.012;24.872;2023-03-31T07:55:10;13.00;;;10.27;;
8572;SDS011;4324;42.012;24.872;2023-03-31T07:57:37;15.70;;;12.60;;
8572;SDS011;4324;42.012;24.872;2023-03-31T08:00:06;15.17;;;11.97;;
8572;SDS011;4324;42.012;24.872;2023-03-31T08:02:38;18.93;;;12.73;;
8572;SDS011;4324;42.012;24.872;2023-03-31T08:05:05;19.37;;;13.40;;
8572;SDS011;4324;42.012;24.872;2023-03-31T08:07:32;19.70;;;13.70;;
8572;SDS011;4324;42.012;24.872;2023-03-31T08:10:01;15.13;;;10.50;;
8572;SDS011;4324;42.012;24.872;2023-03-31T08:12:29;12.47;;;9.37;;
8572;SDS011;4324;42.012;24.872;2023-03-31T08:14:56;14.20;;;10.43;;
8572;SDS011;4324;42.012;24.872;2023-03-31T08:17:23;14.97;;;9.17;;
8572;SDS011;4324;42.012;24.872;2023-03-31T08:19:51;13.43;;;10.17;;
8572;SDS011;4324;42.012;24.872;2023-03-31T08:22:18;10.90;;;8.87;;
8572;SDS011;4324;42.012;24.872;2023-03-31T08:24:47;14.67;;;10.87;;
8572;SDS011;4324;42.012;24.872;2023-03-31T08:27:14;13.03;;;9.20;;
8572;SDS011;4324;42.012;24.872;2023-03-31T08:29:41;16.73;;;12.07;;
8572;SDS011;4324;42.012;24.872;2023-03-31T08:32:08;13.70;;;11.17;;
8572;SDS011;4324;42.012;24.872;2023-03-31T08:34:35;22.77;;;20.23;;
8572;SDS011;4324;42.012;24.872;2023-03-31T08:37:03;15.10;;;8.83;;
8572;SDS011;4324;42.012;24.872;2023-03-31T08:39:30;28.57;;;21.83;;
8572;SDS011;4324;42.012;24.872;2023-03-31T08:41:59;29.67;;;24.20;;
8572;SDS011;4324;42.012;24.872;2023-03-31T08:44:29;17.47;;;12.57;;
8572;SDS011;4324;42.012;24.872;2023-03-31T08:47:01;11.13;;;7.90;;
8572;SDS011;4324;42.012;24.872;2023-03-31T08:49:38;11.67;;;9.10;;
8572;SDS011;4324;42.012;24.872;2023-03-31T08:52:10;14.63;;;12.83;;
8572;SDS011;4324;42.012;24.872;2023-03-31T08:54:41;9.40;;;7.23;;
8572;SDS011;4324;42.012;24.872;2023-03-31T08:57:11;12.23;;;8.33;;
8572;SDS011;4324;42.012;24.872;2023-03-31T08:59:44;7.53;;;6.00;;
8572;SDS011;4324;42.012;24.872;2023-03-31T09:02:14;7.30;;;6.60;;
8572;SDS011;4324;42.012;24.872;2023-03-31T09:04:54;7.63;;;6.10;;
8572;SDS011;4324;42.012;24.872;2023-03-31T09:07:46;12.40;;;6.77;;
8572;SDS011;4324;42.012;24.872;2023-03-31T09:10:24;7.97;;;6.40;;
8572;SDS011;4324;42.012;24.872;2023-03-31T09:13:00;9.60;;;6.43;;
8572;SDS011;4324;42.012;24.872;2023-03-31T09:15:36;9.33;;;6.70;;
8572;SDS011;4324;42.012;24.872;2023-03-31T09:18:11;8.43;;;6.93;;
8572;SDS011;4324;42.012;24.872;2023-03-31T09:28:49;9.17;;;6.40;;
8572;SDS011;4324;42.012;24.872;2023-03-31T09:31:18;9.03;;;6.33;;
8572;SDS011;4324;42.012;24.872;2023-03-31T09:33:47;5.80;;;5.30;;
8572;SDS011;4324;42.012;24.872;2023-03-31T09:36:19;11.37;;;6.67;;
8572;SDS011;4324;42.012;24.872;2023-03-31T09:38:48;7.27;;;5.53;;
8572;SDS011;4324;42.012;24.872;2023-03-31T09:41:15;7.37;;;5.20;;
8572;SDS011;4324;42.012;24.872;2023-03-31T09:43:44;8.90;;;6.20;;
8572;SDS011;4324;42.012;24.872;2023-03-31T09:46:16;10.77;;;6.80;;
8572;SDS011;4324;42.012;24.872;2023-03-31T09:48:51;8.17;;;6.10;;
8572;SDS011;4324;42.012;24.872;2023-03-31T09:51:25;7.40;;;5.93;;
8572;SDS011;4324;42.012;24.872;2023-03-31T09:53:57;10.33;;;6.10;;
8572;SDS011;4324;42.012;24.872;2023-03-31T09:56:33;9.93;;;6.00;;
8572;SDS011;4324;42.012;24.872;2023-03-31T09:59:13;7.73;;;6.20;;
8572;SDS011;4324;42.012;24.872;2023-03-31T10:01:44;8.43;;;6.17;;
8572;SDS011;4324;42.012;24.872;2023-03-31T10:04:20;11.47;;;6.60;;
8572;SDS011;4324;42.012;24.872;2023-03-31T10:06:49;10.33;;;5.87;;
8572;SDS011;4324;42.012;24.872;2023-03-31T10:09:18;9.90;;;6.47;;
8572;SDS011;4324;42.012;24.872;2023-03-31T10:11:57;9.43;;;6.10;;
8572;SDS011;4324;42.012;24.872;2023-03-31T10:14:39;10.53;;;6.37;;
8572;SDS011;4324;42.012;24.872;2023-03-31T10:17:13;12.90;;;9.00;;
8572;SDS011;4324;42.012;24.872;2023-03-31T10:19:49;11.83;;;6.10;;
8572;SDS011;4324;42.012;24.872;2023-03-31T10:22:26;9.57;;;5.13;;
8572;SDS011;4324;42.012;24.872;2023-03-31T10:24:56;10.90;;;6.30;;
8572;SDS011;4324;42.012;24.872;2023-03-31T10:27:35;11.37;;;6.13;;
8572;SDS011;4324;42.012;24.872;2023-03-31T10:30:09;8.80;;;6.60;;
8572;SDS011;4324;42.012;24.872;2023-03-31T10:32:40;8.90;;;6.20;;
8572;SDS011;4324;42.012;24.872;2023-03-31T10:35:11;10.07;;;7.20;;
8572;SDS011;4324;42.012;24.872;2023-03-31T10:37:46;9.83;;;6.80;;
8572;SDS011;4324;42.012;24.872;2023-03-31T10:40:17;7.57;;;6.77;;
8572;SDS011;4324;42.012;24.872;2023-03-31T10:42:47;10.07;;;7.20;;
8572;SDS011;4324;42.012;24.872;2023-03-31T10:45:25;10.23;;;7.27;;
8572;SDS011;4324;42.012;24.872;2023-03-31T10:47:56;9.50;;;6.90;;
8572;SDS011;4324;42.012;24.872;2023-03-31T10:50:27;7.30;;;6.60;;
8572;SDS011;4324;42.012;24.872;2023-03-31T10:53:02;8.57;;;6.83;;
8572;SDS011;4324;42.012;24.872;2023-03-31T10:55:33;12.17;;;10.87;;
8572;SDS011;4324;42.012;24.872;2023-03-31T10:58:20;12.03;;;7.77;;
8572;SDS011;4324;42.012;24.872;2023-03-31T11:01:25;14.23;;;7.47;;
8572;SDS011;4324;42.012;24.872;2023-03-31T11:04:11;16.47;;;9.23;;
8572;SDS011;4324;42.012;24.872;2023-03-31T11:07:29;17.43;;;10.67;;
8572;SDS011;4324;42.012;24.872;2023-03-31T11:10:09;14.93;;;9.90;;
8572;SDS011;4324;42.012;24.872;2023-03-31T11:16:31;9.30;;;8.30;;
8572;SDS011;4324;42.012;24.872;2023-03-31T11:19:13;10.87;;;8.50;;
8572;SDS011;4324;42.012;24.872;2023-03-31T11:21:54;13.13;;;11.07;;
8572;SDS011;4324;42.012;24.872;2023-03-31T11:24:30;11.80;;;10.03;;
8572;SDS011;4324;42.012;24.872;2023-03-31T11:27:29;16.07;;;8.83;;
8572;SDS011;4324;42.012;24.872;2023-03-31T11:30:14;12.27;;;7.67;;
8572;SDS011;4324;42.012;24.872;2023-03-31T11:32:52;9.87;;;7.60;;
8572;SDS011;4324;42.012;24.872;2023-03-31T11:35:44;11.17;;;7.43;;
8572;SDS011;4324;42.012;24.872;2023-03-31T11:38:29;10.37;;;7.03;;
8572;SDS011;4324;42.012;24.872;2023-03-31T11:41:12;8.47;;;6.60;;
8572;SDS011;4324;42.012;24.872;2023-03-31T11:43:42;10.50;;;7.33;;
8572;SDS011;4324;42.012;24.872;2023-03-31T11:46:14;7.53;;;6.83;;
8572;SDS011;4324;42.012;24.872;2023-03-31T11:48:44;8.03;;;7.00;;
8572;SDS011;4324;42.012;24.872;2023-03-31T11:51:18;7.63;;;5.97;;
8572;SDS011;4324;42.012;24.872;2023-03-31T11:53:50;8.20;;;6.63;;
8572;SDS011;4324;42.012;24.872;2023-03-31T11:56:20;8.53;;;7.10;;
8572;SDS011;4324;42.012;24.872;2023-03-31T11:59:01;9.80;;;7.87;;
8572;SDS011;4324;42.012;24.872;2023-03-31T12:01:46;11.33;;;7.53;;
8572;SDS011;4324;42.012;24.872;2023-03-31T12:04:22;10.77;;;8.80;;
8572;SDS011;4324;42.012;24.872;2023-03-31T12:07:00;7.43;;;6.70;;
8572;SDS011;4324;42.012;24.872;2023-03-31T12:09:32;10.47;;;6.13;;
8572;SDS011;4324;42.012;24.872;2023-03-31T12:12:04;10.93;;;7.63;;
8572;SDS011;4324;42.012;24.872;2023-03-31T12:14:36;6.93;;;6.23;;
8572;SDS011;4324;42.012;24.872;2023-03-31T12:17:08;12.00;;;7.43;;
8572;SDS011;4324;42.012;24.872;2023-03-31T12:19:39;8.20;;;7.00;;
8572;SDS011;4324;42.012;24.872;2023-03-31T12:22:15;8.27;;;6.40;;
8572;SDS011;4324;42.012;24.872;2023-03-31T12:24:45;8.53;;;6.70;;
8572;SDS011;4324;42.012;24.872;2023-03-31T12:27:13;13.83;;;7.20;;
8572;SDS011;4324;42.012;24.872;2023-03-31T12:30:08;6.10;;;5.50;;
8572;SDS011;4324;42.012;24.872;2023-03-31T12:32:41;8.57;;;5.93;;
8572;SDS011;4324;42.012;24.872;2023-03-31T12:35:18;7.70;;;5.87;;
8572;SDS011;4324;42.012;24.872;2023-03-31T12:38:01;6.50;;;4.90;;
8572;SDS011;4324;42.012;24.872;2023-03-31T12:40:54;7.53;;;5.80;;
8572;SDS011;4324;42.012;24.872;2023-03-31T12:49:35;7.30;;;5.10;;
8572;SDS011;4324;42.012;24.872;2023-03-31T12:52:15;6.43;;;4.97;;
8572;SDS011;4324;42.012;24.872;2023-03-31T12:54:56;5.63;;;4.90;;
8572;SDS011;4324;42.012;24.872;2023-03-31T12:57:43;5.73;;;4.63;;
8572;SDS011;4324;42.012;24.872;2023-03-31T13:06:00;12.90;;;5.00;;
8572;SDS011;4324;42.012;24.872;2023-03-31T13:08:49;7.93;;;4.90;;
8572;SDS011;4324;42.012;24.872;2023-03-31T13:11:19;9.93;;;5.30;;
8572;SDS011;4324;42.012;24.872;2023-03-31T13:14:01;6.77;;;4.67;;
8572;SDS011;4324;42.012;24.872;2023-03-31T13:19:44;9.97;;;4.37;;
8572;SDS011;4324;42.012;24.872;2023-03-31T13:22:26;8.57;;;4.03;;
8572;SDS011;4324;42.012;24.872;2023-03-31T13:31:10;7.73;;;4.40;;
8572;SDS011;4324;42.012;24.872;2023-03-31T13:33:42;4.30;;;3.40;;
8572;SDS011;4324;42.012;24.872;2023-03-31T13:36:25;8.50;;;3.93;;
8572;SDS011;4324;42.012;24.872;2023-03-31T13:42:48;5.77;;;4.37;;
8572;SDS011;4324;42.012;24.872;2023-03-31T13:45:41;4.93;;;4.50;;
8572;SDS011;4324;42.012;24.872;2023-03-31T13:48:23;5.13;;;3.93;;
8572;SDS011;4324;42.012;24.872;2023-03-31T13:51:19;6.57;;;3.50;;
8572;SDS011;4324;42.012;24.872;2023-03-31T13:57:19;6.70;;;6.03;;
8572;SDS011;4324;42.012;24.872;2023-03-31T14:00:05;6.10;;;4.43;;
8572;SDS011;4324;42.012;24.872;2023-03-31T14:02:50;6.53;;;5.90;;
8572;SDS011;4324;42.012;24.872;2023-03-31T14:05:31;8.37;;;6.57;;
8572;SDS011;4324;42.012;24.872;2023-03-31T14:08:04;8.63;;;6.17;;
8572;SDS011;4324;42.012;24.872;2023-03-31T14:10:39;14.70;;;9.23;;
8572;SDS011;4324;42.012;24.872;2023-03-31T14:13:08;6.47;;;4.70;;
8572;SDS011;4324;42.012;24.872;2023-03-31T14:15:44;5.17;;;4.20;;
8572;SDS011;4324;42.012;24.872;2023-03-31T14:18:22;6.00;;;4.47;;
8572;SDS011;4324;42.012;24.872;2023-03-31T14:21:00;9.50;;;7.17;;
8572;SDS011;4324;42.012;24.872;2023-03-31T14:23:40;4.47;;;3.47;;
8572;SDS011;4324;42.012;24.872;2023-03-31T14:26:19;7.07;;;4.33;;
8572;SDS011;4324;42.012;24.872;2023-03-31T14:29:00;6.60;;;4.53;;
8572;SDS011;4324;42.012;24.872;2023-03-31T14:31:38;7.03;;;4.73;;
8572;SDS011;4324;42.012;24.872;2023-03-31T14:34:19;6.57;;;5.57;;
8572;SDS011;4324;42.012;24.872;2023-03-31T14:37:08;5.40;;;4.80;;
8572;SDS011;4324;42.012;24.872;2023-03-31T14:39:43;11.70;;;6.07;;
8572;SDS011;4324;42.012;24.872;2023-03-31T14:42:13;4.93;;;4.40;;
8572;SDS011;4324;42.012;24.872;2023-03-31T14:44:42;5.40;;;4.50;;
8572;SDS011;4324;42.012;24.872;2023-03-31T14:47:12;9.07;;;4.93;;
8572;SDS011;4324;42.012;24.872;2023-03-31T14:49:41;6.73;;;4.37;;
8572;SDS011;4324;42.012;24.872;2023-03-31T14:52:27;7.23;;;4.73;;
8572;SDS011;4324;42.012;24.872;2023-03-31T14:54:55;7.40;;;4.50;;
8572;SDS011;4324;42.012;24.872;2023-03-31T14:57:24;4.60;;;4.10;;
8572;SDS011;4324;42.012;24.872;2023-03-31T14:59:56;6.10;;;4.80;;
8572;SDS011;4324;42.012;24.872;2023-03-31T15:02:27;5.63;;;4.73;;
8572;SDS011;4324;42.012;24.872;2023-03-31T15:08:14;5.57;;;4.20;;
8572;SDS011;4324;42.012;24.872;2023-03-31T15:10:55;10.77;;;6.10;;
8572;SDS011;4324;42.012;24.872;2023-03-31T15:13:26;12.23;;;7.83;;
8572;SDS011;4324;42.012;24.872;2023-03-31T15:15:58;5.63;;;4.60;;
8572;SDS011;4324;42.012;24.872;2023-03-31T15:18:26;8.50;;;4.90;;
8572;SDS011;4324;42.012;24.872;2023-03-31T15:20:53;7.87;;;5.50;;
8572;SDS011;4324;42.012;24.872;2023-03-31T15:23:22;6.17;;;4.80;;
8572;SDS011;4324;42.012;24.872;2023-03-31T15:28:40;6.00;;;5.40;;
8572;SDS011;4324;42.012;24.872;2023-03-31T15:31:13;5.50;;;4.50;;
8572;SDS011;4324;42.012;24.872;2023-03-31T15:33:41;4.87;;;4.43;;
8572;SDS011;4324;42.012;24.872;2023-03-31T15:36:09;6.03;;;4.90;;
8572;SDS011;4324;42.012;24.872;2023-03-31T15:38:39;8.53;;;5.70;;
8572;SDS011;4324;42.012;24.872;2023-03-31T15:41:10;5.83;;;4.30;;
8572;SDS011;4324;42.012;24.872;2023-03-31T15:43:41;5.67;;;4.57;;
8572;SDS011;4324;42.012;24.872;2023-03-31T15:46:15;6.40;;;4.80;;
8572;SDS011;4324;42.012;24.872;2023-03-31T15:48:49;6.57;;;5.13;;
8572;SDS011;4324;42.012;24.872;2023-03-31T15:51:19;10.93;;;6.90;;
8572;SDS011;4324;42.012;24.872;2023-03-31T15:53:56;7.80;;;5.37;;
8572;SDS011;4324;42.012;24.872;2023-03-31T15:56:24;7.00;;;5.90;;
8572;SDS011;4324;42.012;24.872;2023-03-31T15:58:56;13.57;;;7.37;;
8572;SDS011;4324;42.012;24.872;2023-03-31T16:01:26;10.10;;;5.93;;
8572;SDS011;4324;42.012;24.872;2023-03-31T16:03:57;9.87;;;6.80;;
8572;SDS011;4324;42.012;24.872;2023-03-31T16:06:28;8.60;;;6.70;;
8572;SDS011;4324;42.012;24.872;2023-03-31T16:09:03;6.10;;;5.20;;
8572;SDS011;4324;42.012;24.872;2023-03-31T16:11:34;7.03;;;5.13;;
8572;SDS011;4324;42.012;24.872;2023-03-31T16:14:06;7.10;;;5.73;;
8572;SDS011;4324;42.012;24.872;2023-03-31T16:16:39;8.93;;;5.77;;
8572;SDS011;4324;42.012;24.872;2023-03-31T16:19:12;6.57;;;5.13;;
8572;SDS011;4324;42.012;24.872;2023-03-31T16:21:40;9.43;;;6.13;;
8572;SDS011;4324;42.012;24.872;2023-03-31T16:24:12;7.70;;;6.50;;
8572;SDS011;4324;42.012;24.872;2023-03-31T16:26:40;10.33;;;7.60;;